sensor_id;sensor_type;location;lat;lon;timestamp;temperature;humidity
3550;DHT22;45572;48.804;8.330;2023-02-26T00:00:59;2.40;70.20
3550;DHT22;45572;48.804;8.330;2023-02-26T00:03:28;2.30;70.40
3550;DHT22;45572;48.804;8.330;2023-02-26T00:05:59;2.30;70.50
3550;DHT22;45572;48.804;8.330;2023-02-26T00:08:28;2.20;70.50
3550;DHT22;45572;48.804;8.330;2023-02-26T00:10:57;2.20;71.20
3550;DHT22;45572;48.804;8.330;2023-02-26T00:13:27;2.20;72.90
3550;DHT22;45572;48.804;8.330;2023-02-26T00:15:58;2.20;73.50
3550;DHT22;45572;48.804;8.330;2023-02-26T00:18:27;2.20;72.70
3550;DHT22;45572;48.804;8.330;2023-02-26T00:20:55;2.10;72.90
3550;DHT22;45572;48.804;8.330;2023-02-26T00:23:24;2.00;73.30
3550;DHT22;45572;48.804;8.330;2023-02-26T00:25:57;2.00;74.40
3550;DHT22;45572;48.804;8.330;2023-02-26T00:28:25;2.00;74.80
3550;DHT22;45572;48.804;8.330;2023-02-26T00:30:53;2.00;74.20
3550;DHT22;45572;48.804;8.330;2023-02-26T00:33:21;2.00;74.60
3550;DHT22;45572;48.804;8.330;2023-02-26T00:35:56;1.80;74.60
3550;DHT22;45572;48.804;8.330;2023-02-26T00:38:27;1.80;76.00
3550;DHT22;45572;48.804;8.330;2023-02-26T00:40:57;1.80;74.60
3550;DHT22;45572;48.804;8.330;2023-02-26T00:43:25;1.70;74.60
3550;DHT22;45572;48.804;8.330;2023-02-26T00:45:59;1.70;74.80
3550;DHT22;45572;48.804;8.330;2023-02-26T00:48:39;1.70;75.10
3550;DHT22;45572;48.804;8.330;2023-02-26T00:51:18;1.50;76.20
3550;DHT22;45572;48.804;8.330;2023-02-26T00:53:51;1.60;76.20
3550;DHT22;45572;48.804;8.330;2023-02-26T00:56:23;1.40;75.70
3550;DHT22;45572;48.804;8.330;2023-02-26T00:58:51;1.40;76.70
3550;DHT22;45572;48.804;8.330;2023-02-26T01:01:19;1.50;77.80
3550;DHT22;45572;48.804;8.330;2023-02-26T01:03:47;1.50;77.70
3550;DHT22;45572;48.804;8.330;2023-02-26T01:06:19;1.50;78.20
3550;DHT22;45572;48.804;8.330;2023-02-26T01:09:00;1.50;78.30
3550;DHT22;45572;48.804;8.330;2023-02-26T01:11:30;1.50;78.60
3550;DHT22;45572;48.804;8.330;2023-02-26T01:13:58;1.50;78.40
3550;DHT22;45572;48.804;8.330;2023-02-26T01:16:27;1.50;78.70
3550;DHT22;45572;48.804;8.330;2023-02-26T01:19:02;1.50;78.90
3550;DHT22;45572;48.804;8.330;2023-02-26T01:21:35;1.40;79.00
3550;DHT22;45572;48.804;8.330;2023-02-26T01:24:07;1.50;79.00
3550;DHT22;45572;48.804;8.330;2023-02-26T01:26:37;1.40;78.30
3550;DHT22;45572;48.804;8.330;2023-02-26T01:29:06;1.40;78.70
3550;DHT22;45572;48.804;8.330;2023-02-26T01:31:38;1.30;78.70
3550;DHT22;45572;48.804;8.330;2023-02-26T01:34:13;1.30;79.80
3550;DHT22;45572;48.804;8.330;2023-02-26T01:36:45;1.20;78.90
3550;DHT22;45572;48.804;8.330;2023-02-26T01:39:23;1.20;79.30
3550;DHT22;45572;48.804;8.330;2023-02-26T01:41:54;1.20;79.70
3550;DHT22;45572;48.804;8.330;2023-02-26T01:44:28;1.10;80.00
3550;DHT22;45572;48.804;8.330;2023-02-26T01:47:04;1.10;80.40
3550;DHT22;45572;48.804;8.330;2023-02-26T01:49:33;1.00;80.50
3550;DHT22;45572;48.804;8.330;2023-02-26T01:52:02;1.00;80.90
3550;DHT22;45572;48.804;8.330;2023-02-26T01:54:36;0.90;81.20
3550;DHT22;45572;48.804;8.330;2023-02-26T01:57:08;0.90;81.50
3550;DHT22;45572;48.804;8.330;2023-02-26T01:59:40;0.90;81.90
3550;DHT22;45572;48.804;8.330;2023-02-26T02:02:09;0.90;81.70
3550;DHT22;45572;48.804;8.330;2023-02-26T02:04:39;0.90;81.30
3550;DHT22;45572;48.804;8.330;2023-02-26T02:07:10;0.80;81.30
3550;DHT22;45572;48.804;8.330;2023-02-26T02:09:39;0.80;81.50
3550;DHT22;45572;48.804;8.330;2023-02-26T02:12:18;0.80;81.30
3550;DHT22;45572;48.804;8.330;2023-02-26T02:14:55;0.90;81.20
3550;DHT22;45572;48.804;8.330;2023-02-26T02:17:36;0.90;80.00
3550;DHT22;45572;48.804;8.330;2023-02-26T02:20:23;0.90;80.00
3550;DHT22;45572;48.804;8.330;2023-02-26T02:23:08;0.90;80.50
3550;DHT22;45572;48.804;8.330;2023-02-26T02:28:36;0.80;80.10
3550;DHT22;45572;48.804;8.330;2023-02-26T02:31:12;0.80;79.80
3550;DHT22;45572;48.804;8.330;2023-02-26T02:33:47;0.80;79.60
3550;DHT22;45572;48.804;8.330;2023-02-26T02:36:21;0.80;79.80
3550;DHT22;45572;48.804;8.330;2023-02-26T02:38:53;0.80;79.90
3550;DHT22;45572;48.804;8.330;2023-02-26T02:41:30;0.80;79.80
3550;DHT22;45572;48.804;8.330;2023-02-26T02:44:00;0.80;80.70
3550;DHT22;45572;48.804;8.330;2023-02-26T02:46:33;0.80;81.20
3550;DHT22;45572;48.804;8.330;2023-02-26T02:49:06;0.80;81.20
3550;DHT22;45572;48.804;8.330;2023-02-26T02:51:37;0.70;81.00
3550;DHT22;45572;48.804;8.330;2023-02-26T02:54:10;0.70;81.10
3550;DHT22;45572;48.804;8.330;2023-02-26T02:56:42;0.70;81.50
3550;DHT22;45572;48.804;8.330;2023-02-26T02:59:15;0.80;81.70
3550;DHT22;45572;48.804;8.330;2023-02-26T03:01:47;0.70;81.30
3550;DHT22;45572;48.804;8.330;2023-02-26T03:04:18;0.60;81.00
3550;DHT22;45572;48.804;8.330;2023-02-26T03:06:46;0.50;81.10
3550;DHT22;45572;48.804;8.330;2023-02-26T03:09:17;0.40;81.70
3550;DHT22;45572;48.804;8.330;2023-02-26T03:11:45;0.40;81.80
3550;DHT22;45572;48.804;8.330;2023-02-26T03:14:14;0.40;81.90
3550;DHT22;45572;48.804;8.330;2023-02-26T03:16:58;0.30;81.90
3550;DHT22;45572;48.804;8.330;2023-02-26T03:19:35;0.30;82.60
3550;DHT22;45572;48.804;8.330;2023-02-26T03:22:11;0.20;82.20
3550;DHT22;45572;48.804;8.330;2023-02-26T03:24:53;0.20;82.40
3550;DHT22;45572;48.804;8.330;2023-02-26T03:27:29;0.10;82.40
3550;DHT22;45572;48.804;8.330;2023-02-26T03:30:02;0.10;82.90
3550;DHT22;45572;48.804;8.330;2023-02-26T03:32:44;0.10;83.50
3550;DHT22;45572;48.804;8.330;2023-02-26T03:35:23;0.10;83.40
3550;DHT22;45572;48.804;8.330;2023-02-26T03:37:55;0.00;83.20
3550;DHT22;45572;48.804;8.330;2023-02-26T03:40:28;-0.10;82.90
3550;DHT22;45572;48.804;8.330;2023-02-26T03:43:02;-0.10;83.20
3550;DHT22;45572;48.804;8.330;2023-02-26T03:45:34;-0.20;83.70
3550;DHT22;45572;48.804;8.330;2023-02-26T03:48:05;-0.20;84.10
3550;DHT22;45572;48.804;8.330;2023-02-26T03:50:37;-0.20;84.50
3550;DHT22;45572;48.804;8.330;2023-02-26T03:53:21;-0.20;84.70
3550;DHT22;45572;48.804;8.330;2023-02-26T03:55:57;-0.20;84.80
3550;DHT22;45572;48.804;8.330;2023-02-26T03:58:48;-0.20;84.50
3550;DHT22;45572;48.804;8.330;2023-02-26T04:01:40;-0.20;84.80
3550;DHT22;45572;48.804;8.330;2023-02-26T04:04:14;-0.20;84.90
3550;DHT22;45572;48.804;8.330;2023-02-26T04:06:43;-0.20;84.90
3550;DHT22;45572;48.804;8.330;2023-02-26T04:09:12;-0.30;84.70
3550;DHT22;45572;48.804;8.330;2023-02-26T04:11:42;-0.30;84.70
3550;DHT22;45572;48.804;8.330;2023-02-26T04:14:11;-0.40;84.10
3550;DHT22;45572;48.804;8.330;2023-02-26T04:16:41;-0.40;84.80
3550;DHT22;45572;48.804;8.330;2023-02-26T04:19:12;-0.40;85.10
3550;DHT22;45572;48.804;8.330;2023-02-26T04:21:41;-0.50;85.10
3550;DHT22;45572;48.804;8.330;2023-02-26T04:24:10;-0.50;85.40
3550;DHT22;45572;48.804;8.330;2023-02-26T04:26:37;-0.50;85.40
3550;DHT22;45572;48.804;8.330;2023-02-26T04:29:06;-0.50;85.20
3550;DHT22;45572;48.804;8.330;2023-02-26T04:31:34;-0.60;85.30
3550;DHT22;45572;48.804;8.330;2023-02-26T04:34:02;-0.60;85.60
3550;DHT22;45572;48.804;8.330;2023-02-26T04:36:31;-0.60;85.90
3550;DHT22;45572;48.804;8.330;2023-02-26T04:38:59;-0.60;86.00
3550;DHT22;45572;48.804;8.330;2023-02-26T04:41:29;-0.60;86.10
3550;DHT22;45572;48.804;8.330;2023-02-26T04:43:57;-0.70;86.30
3550;DHT22;45572;48.804;8.330;2023-02-26T04:46:28;-0.70;86.30
3550;DHT22;45572;48.804;8.330;2023-02-26T04:49:05;-0.80;86.40
3550;DHT22;45572;48.804;8.330;2023-02-26T04:51:35;-0.70;85.70
3550;DHT22;45572;48.804;8.330;2023-02-26T04:54:06;-0.60;85.30
3550;DHT22;45572;48.804;8.330;2023-02-26T04:56:34;-0.60;84.50
3550;DHT22;45572;48.804;8.330;2023-02-26T04:59:03;-0.50;84.20
3550;DHT22;45572;48.804;8.330;2023-02-26T05:01:30;-0.50;84.00
3550;DHT22;45572;48.804;8.330;2023-02-26T05:03:58;-0.40;83.30
3550;DHT22;45572;48.804;8.330;2023-02-26T05:06:28;-0.40;83.30
3550;DHT22;45572;48.804;8.330;2023-02-26T05:08:58;-0.40;83.10
3550;DHT22;45572;48.804;8.330;2023-02-26T05:11:25;-0.40;83.00
3550;DHT22;45572;48.804;8.330;2023-02-26T05:13:53;-0.30;83.10
3550;DHT22;45572;48.804;8.330;2023-02-26T05:16:21;-0.30;83.10
3550;DHT22;45572;48.804;8.330;2023-02-26T05:18:49;-0.20;82.90
3550;DHT22;45572;48.804;8.330;2023-02-26T05:21:17;-0.30;82.40
3550;DHT22;45572;48.804;8.330;2023-02-26T05:23:47;-0.30;83.40
3550;DHT22;45572;48.804;8.330;2023-02-26T05:26:17;-0.30;83.10
3550;DHT22;45572;48.804;8.330;2023-02-26T05:28:45;-0.30;82.60
3550;DHT22;45572;48.804;8.330;2023-02-26T05:31:13;-0.30;83.00
3550;DHT22;45572;48.804;8.330;2023-02-26T05:33:41;-0.30;83.00
3550;DHT22;45572;48.804;8.330;2023-02-26T05:36:10;-0.30;82.90
3550;DHT22;45572;48.804;8.330;2023-02-26T05:38:38;-0.20;82.90
3550;DHT22;45572;48.804;8.330;2023-02-26T05:41:05;-0.30;82.80
3550;DHT22;45572;48.804;8.330;2023-02-26T05:43:34;-0.20;83.30
3550;DHT22;45572;48.804;8.330;2023-02-26T05:46:02;-0.20;83.20
3550;DHT22;45572;48.804;8.330;2023-02-26T05:48:30;-0.20;83.00
3550;DHT22;45572;48.804;8.330;2023-02-26T05:50:58;-0.30;82.90
3550;DHT22;45572;48.804;8.330;2023-02-26T05:53:26;-0.30;83.00
3550;DHT22;45572;48.804;8.330;2023-02-26T05:55:54;-0.40;83.90
3550;DHT22;45572;48.804;8.330;2023-02-26T05:58:22;-0.40;83.70
3550;DHT22;45572;48.804;8.330;2023-02-26T06:00:51;-0.40;84.00
3550;DHT22;45572;48.804;8.330;2023-02-26T06:03:19;-0.40;83.90
3550;DHT22;45572;48.804;8.330;2023-02-26T06:05:47;-0.30;83.70
3550;DHT22;45572;48.804;8.330;2023-02-26T06:08:15;-0.40;83.80
3550;DHT22;45572;48.804;8.330;2023-02-26T06:10:43;-0.40;84.10
3550;DHT22;45572;48.804;8.330;2023-02-26T06:13:11;-0.40;83.90
3550;DHT22;45572;48.804;8.330;2023-02-26T06:15:38;-0.30;84.00
3550;DHT22;45572;48.804;8.330;2023-02-26T06:18:07;-0.40;83.70
3550;DHT22;45572;48.804;8.330;2023-02-26T06:20:35;-0.40;84.10
3550;DHT22;45572;48.804;8.330;2023-02-26T06:23:03;-0.40;83.90
3550;DHT22;45572;48.804;8.330;2023-02-26T06:25:31;-0.40;83.50
3550;DHT22;45572;48.804;8.330;2023-02-26T06:27:58;-0.30;83.60
3550;DHT22;45572;48.804;8.330;2023-02-26T06:30:26;-0.30;83.50
3550;DHT22;45572;48.804;8.330;2023-02-26T06:32:54;-0.30;83.40
3550;DHT22;45572;48.804;8.330;2023-02-26T06:35:23;-0.30;83.20
3550;DHT22;45572;48.804;8.330;2023-02-26T06:37:51;-0.20;83.40
3550;DHT22;45572;48.804;8.330;2023-02-26T06:40:19;-0.30;83.50
3550;DHT22;45572;48.804;8.330;2023-02-26T06:42:47;-0.20;83.70
3550;DHT22;45572;48.804;8.330;2023-02-26T06:45:14;-0.20;83.50
3550;DHT22;45572;48.804;8.330;2023-02-26T06:47:42;-0.20;83.50
3550;DHT22;45572;48.804;8.330;2023-02-26T06:50:11;-0.10;83.50
3550;DHT22;45572;48.804;8.330;2023-02-26T06:52:40;-0.10;83.40
3550;DHT22;45572;48.804;8.330;2023-02-26T06:55:08;0.00;83.40
3550;DHT22;45572;48.804;8.330;2023-02-26T06:57:36;0.00;83.60
3550;DHT22;45572;48.804;8.330;2023-02-26T07:00:05;0.00;83.70
3550;DHT22;45572;48.804;8.330;2023-02-26T07:02:37;0.00;83.30
3550;DHT22;45572;48.804;8.330;2023-02-26T07:05:06;0.00;82.90
3550;DHT22;45572;48.804;8.330;2023-02-26T07:07:34;0.00;82.80
3550;DHT22;45572;48.804;8.330;2023-02-26T07:10:03;0.10;83.10
3550;DHT22;45572;48.804;8.330;2023-02-26T07:12:31;0.10;82.50
3550;DHT22;45572;48.804;8.330;2023-02-26T07:14:59;0.10;82.90
3550;DHT22;45572;48.804;8.330;2023-02-26T07:17:27;0.10;82.50
3550;DHT22;45572;48.804;8.330;2023-02-26T07:19:55;0.40;83.70
3550;DHT22;45572;48.804;8.330;2023-02-26T07:22:23;0.50;82.50
3550;DHT22;45572;48.804;8.330;2023-02-26T07:24:50;0.60;81.80
3550;DHT22;45572;48.804;8.330;2023-02-26T07:27:19;0.90;81.50
3550;DHT22;45572;48.804;8.330;2023-02-26T07:29:47;1.10;80.00
3550;DHT22;45572;48.804;8.330;2023-02-26T07:32:15;1.30;79.80
3550;DHT22;45572;48.804;8.330;2023-02-26T07:34:43;1.30;79.70
3550;DHT22;45572;48.804;8.330;2023-02-26T07:37:10;1.40;78.90
3550;DHT22;45572;48.804;8.330;2023-02-26T07:39:38;1.40;79.30
3550;DHT22;45572;48.804;8.330;2023-02-26T07:42:06;1.50;79.30
3550;DHT22;45572;48.804;8.330;2023-02-26T07:44:35;1.60;78.90
3550;DHT22;45572;48.804;8.330;2023-02-26T07:47:03;1.60;77.70
3550;DHT22;45572;48.804;8.330;2023-02-26T07:49:31;1.80;78.10
3550;DHT22;45572;48.804;8.330;2023-02-26T07:52:00;1.90;78.00
3550;DHT22;45572;48.804;8.330;2023-02-26T07:54:28;2.10;77.50
3550;DHT22;45572;48.804;8.330;2023-02-26T07:56:56;2.30;77.20
3550;DHT22;45572;48.804;8.330;2023-02-26T07:59:24;2.40;76.10
3550;DHT22;45572;48.804;8.330;2023-02-26T08:01:53;2.30;76.20
3550;DHT22;45572;48.804;8.330;2023-02-26T08:04:21;2.30;76.10
3550;DHT22;45572;48.804;8.330;2023-02-26T08:06:49;2.10;75.80
3550;DHT22;45572;48.804;8.330;2023-02-26T08:09:20;2.10;76.60
3550;DHT22;45572;48.804;8.330;2023-02-26T08:11:48;2.30;77.10
3550;DHT22;45572;48.804;8.330;2023-02-26T08:14:15;2.60;76.10
3550;DHT22;45572;48.804;8.330;2023-02-26T08:16:43;3.00;75.80
3550;DHT22;45572;48.804;8.330;2023-02-26T08:19:12;3.30;74.10
3550;DHT22;45572;48.804;8.330;2023-02-26T08:21:40;4.30;73.40
3550;DHT22;45572;48.804;8.330;2023-02-26T08:24:09;5.20;67.80
3550;DHT22;45572;48.804;8.330;2023-02-26T08:26:37;6.10;66.70
3550;DHT22;45572;48.804;8.330;2023-02-26T08:29:06;6.90;64.60
3550;DHT22;45572;48.804;8.330;2023-02-26T08:31:34;8.00;61.20
3550;DHT22;45572;48.804;8.330;2023-02-26T08:34:02;8.70;58.60
3550;DHT22;45572;48.804;8.330;2023-02-26T08:36:31;9.40;57.10
3550;DHT22;45572;48.804;8.330;2023-02-26T08:39:00;10.20;54.90
3550;DHT22;45572;48.804;8.330;2023-02-26T08:41:28;10.90;53.90
3550;DHT22;45572;48.804;8.330;2023-02-26T08:43:58;11.10;52.40
3550;DHT22;45572;48.804;8.330;2023-02-26T08:46:27;10.90;52.10
3550;DHT22;45572;48.804;8.330;2023-02-26T08:48:56;11.30;52.10
3550;DHT22;45572;48.804;8.330;2023-02-26T08:51:23;11.40;49.90
3550;DHT22;45572;48.804;8.330;2023-02-26T08:53:53;11.80;51.70
3550;DHT22;45572;48.804;8.330;2023-02-26T08:56:22;12.10;49.80
3550;DHT22;45572;48.804;8.330;2023-02-26T08:58:53;12.00;49.30
3550;DHT22;45572;48.804;8.330;2023-02-26T09:01:21;11.70;49.50
3550;DHT22;45572;48.804;8.330;2023-02-26T09:03:49;11.80;49.60
3550;DHT22;45572;48.804;8.330;2023-02-26T09:06:17;12.00;49.10
3550;DHT22;45572;48.804;8.330;2023-02-26T09:08:45;11.60;49.50
3550;DHT22;45572;48.804;8.330;2023-02-26T09:11:14;11.00;50.90
3550;DHT22;45572;48.804;8.330;2023-02-26T09:13:41;10.50;51.70
3550;DHT22;45572;48.804;8.330;2023-02-26T09:16:09;9.60;53.10
3550;DHT22;45572;48.804;8.330;2023-02-26T09:18:41;9.70;53.10
3550;DHT22;45572;48.804;8.330;2023-02-26T09:21:09;10.30;52.60
3550;DHT22;45572;48.804;8.330;2023-02-26T09:23:37;10.10;53.00
3550;DHT22;45572;48.804;8.330;2023-02-26T09:26:05;9.90;53.40
3550;DHT22;45572;48.804;8.330;2023-02-26T09:28:35;9.80;54.20
3550;DHT22;45572;48.804;8.330;2023-02-26T09:31:03;9.70;55.20
3550;DHT22;45572;48.804;8.330;2023-02-26T09:33:33;9.90;55.40
3550;DHT22;45572;48.804;8.330;2023-02-26T09:36:01;10.00;55.20
3550;DHT22;45572;48.804;8.330;2023-02-26T09:38:29;10.10;55.10
3550;DHT22;45572;48.804;8.330;2023-02-26T09:41:00;9.10;55.70
3550;DHT22;45572;48.804;8.330;2023-02-26T09:46:32;7.90;60.90
3550;DHT22;45572;48.804;8.330;2023-02-26T09:49:17;7.70;61.70
3550;DHT22;45572;48.804;8.330;2023-02-26T09:51:46;7.40;63.50
3550;DHT22;45572;48.804;8.330;2023-02-26T09:54:18;7.20;64.10
3550;DHT22;45572;48.804;8.330;2023-02-26T09:56:49;7.00;63.10
3550;DHT22;45572;48.804;8.330;2023-02-26T09:59:19;6.80;64.30
3550;DHT22;45572;48.804;8.330;2023-02-26T10:01:53;6.30;64.30
3550;DHT22;45572;48.804;8.330;2023-02-26T10:07:15;5.70;66.40
3550;DHT22;45572;48.804;8.330;2023-02-26T10:09:56;5.20;67.80
3550;DHT22;45572;48.804;8.330;2023-02-26T10:12:29;4.90;68.30
3550;DHT22;45572;48.804;8.330;2023-02-26T10:15:05;4.60;69.50
3550;DHT22;45572;48.804;8.330;2023-02-26T10:17:41;4.40;68.90
3550;DHT22;45572;48.804;8.330;2023-02-26T10:20:18;4.30;69.60
3550;DHT22;45572;48.804;8.330;2023-02-26T10:22:55;3.90;70.70
3550;DHT22;45572;48.804;8.330;2023-02-26T10:25:30;3.80;70.70
3550;DHT22;45572;48.804;8.330;2023-02-26T10:28:04;3.70;70.80
3550;DHT22;45572;48.804;8.330;2023-02-26T10:30:40;3.60;70.70
3550;DHT22;45572;48.804;8.330;2023-02-26T10:33:17;3.50;71.10
3550;DHT22;45572;48.804;8.330;2023-02-26T10:35:52;3.50;71.60
3550;DHT22;45572;48.804;8.330;2023-02-26T10:38:23;3.60;72.00
3550;DHT22;45572;48.804;8.330;2023-02-26T10:40:55;3.50;71.70
3550;DHT22;45572;48.804;8.330;2023-02-26T10:43:29;3.30;71.50
3550;DHT22;45572;48.804;8.330;2023-02-26T10:46:09;3.40;72.10
3550;DHT22;45572;48.804;8.330;2023-02-26T10:48:52;3.40;73.00
3550;DHT22;45572;48.804;8.330;2023-02-26T10:51:23;3.30;73.10
3550;DHT22;45572;48.804;8.330;2023-02-26T10:53:57;3.40;73.50
3550;DHT22;45572;48.804;8.330;2023-02-26T10:56:29;3.60;74.00
3550;DHT22;45572;48.804;8.330;2023-02-26T10:58:59;3.70;71.80
3550;DHT22;45572;48.804;8.330;2023-02-26T11:01:29;3.70;72.20
3550;DHT22;45572;48.804;8.330;2023-02-26T11:04:06;3.80;72.20
3550;DHT22;45572;48.804;8.330;2023-02-26T11:06:37;3.90;71.70
3550;DHT22;45572;48.804;8.330;2023-02-26T11:09:18;3.90;71.20
3550;DHT22;45572;48.804;8.330;2023-02-26T11:11:49;3.90;70.40
3550;DHT22;45572;48.804;8.330;2023-02-26T11:14:18;3.90;71.00
3550;DHT22;45572;48.804;8.330;2023-02-26T11:16:53;4.00;70.00
3550;DHT22;45572;48.804;8.330;2023-02-26T11:19:26;3.90;69.60
3550;DHT22;45572;48.804;8.330;2023-02-26T11:21:55;3.80;69.30
3550;DHT22;45572;48.804;8.330;2023-02-26T11:24:30;3.80;69.70
3550;DHT22;45572;48.804;8.330;2023-02-26T11:27:00;3.80;70.50
3550;DHT22;45572;48.804;8.330;2023-02-26T11:29:35;3.80;69.10
3550;DHT22;45572;48.804;8.330;2023-02-26T11:32:06;3.80;70.20
3550;DHT22;45572;48.804;8.330;2023-02-26T11:34:45;3.80;69.40
3550;DHT22;45572;48.804;8.330;2023-02-26T11:37:18;4.00;70.20
3550;DHT22;45572;48.804;8.330;2023-02-26T11:39:51;4.10;69.40
3550;DHT22;45572;48.804;8.330;2023-02-26T11:42:22;4.00;69.00
3550;DHT22;45572;48.804;8.330;2023-02-26T11:44:50;3.90;69.40
3550;DHT22;45572;48.804;8.330;2023-02-26T11:47:22;3.90;69.50
3550;DHT22;45572;48.804;8.330;2023-02-26T11:49:52;3.90;70.40
3550;DHT22;45572;48.804;8.330;2023-02-26T11:52:28;3.90;70.00
3550;DHT22;45572;48.804;8.330;2023-02-26T11:55:00;4.00;70.60
3550;DHT22;45572;48.804;8.330;2023-02-26T11:57:32;4.20;70.00
3550;DHT22;45572;48.804;8.330;2023-02-26T12:00:02;4.10;69.50
3550;DHT22;45572;48.804;8.330;2023-02-26T12:02:46;4.00;70.40
3550;DHT22;45572;48.804;8.330;2023-02-26T12:05:16;4.10;70.80
3550;DHT22;45572;48.804;8.330;2023-02-26T12:07:45;4.20;69.90
3550;DHT22;45572;48.804;8.330;2023-02-26T12:10:17;4.20;70.00
3550;DHT22;45572;48.804;8.330;2023-02-26T12:12:53;4.30;70.70
3550;DHT22;45572;48.804;8.330;2023-02-26T12:15:29;4.40;70.00
3550;DHT22;45572;48.804;8.330;2023-02-26T12:18:19;4.40;68.70
3550;DHT22;45572;48.804;8.330;2023-02-26T12:20:56;4.20;70.30
3550;DHT22;45572;48.804;8.330;2023-02-26T12:23:41;4.10;71.20
3550;DHT22;45572;48.804;8.330;2023-02-26T12:26:21;4.00;72.00
3550;DHT22;45572;48.804;8.330;2023-02-26T12:29:05;3.80;73.50
3550;DHT22;45572;48.804;8.330;2023-02-26T12:34:44;3.70;74.50
3550;DHT22;45572;48.804;8.330;2023-02-26T12:37:29;3.80;74.50
3550;DHT22;45572;48.804;8.330;2023-02-26T12:40:07;3.90;73.90
3550;DHT22;45572;48.804;8.330;2023-02-26T12:42:47;4.00;73.00
3550;DHT22;45572;48.804;8.330;2023-02-26T12:45:28;3.90;73.30
3550;DHT22;45572;48.804;8.330;2023-02-26T12:48:09;4.00;73.30
3550;DHT22;45572;48.804;8.330;2023-02-26T12:50:52;4.20;71.30
3550;DHT22;45572;48.804;8.330;2023-02-26T12:53:44;4.20;71.30
3550;DHT22;45572;48.804;8.330;2023-02-26T12:56:29;4.00;71.50
3550;DHT22;45572;48.804;8.330;2023-02-26T12:59:13;4.10;72.50
3550;DHT22;45572;48.804;8.330;2023-02-26T13:01:52;4.10;72.20
3550;DHT22;45572;48.804;8.330;2023-02-26T13:04:50;4.20;71.20
3550;DHT22;45572;48.804;8.330;2023-02-26T13:07:37;4.00;71.70
3550;DHT22;45572;48.804;8.330;2023-02-26T13:10:15;4.10;71.70
3550;DHT22;45572;48.804;8.330;2023-02-26T13:12:52;4.10;71.10
3550;DHT22;45572;48.804;8.330;2023-02-26T13:15:37;4.10;72.00
3550;DHT22;45572;48.804;8.330;2023-02-26T13:18:12;4.20;72.60
3550;DHT22;45572;48.804;8.330;2023-02-26T13:20:51;4.30;72.20
3550;DHT22;45572;48.804;8.330;2023-02-26T13:23:24;4.50;70.80
3550;DHT22;45572;48.804;8.330;2023-02-26T13:25:56;4.70;70.10
3550;DHT22;45572;48.804;8.330;2023-02-26T13:28:35;4.70;70.60
3550;DHT22;45572;48.804;8.330;2023-02-26T13:31:08;4.60;70.50
3550;DHT22;45572;48.804;8.330;2023-02-26T13:33:38;4.50;71.60
3550;DHT22;45572;48.804;8.330;2023-02-26T13:36:07;4.50;71.30
3550;DHT22;45572;48.804;8.330;2023-02-26T13:38:45;4.40;71.60
3550;DHT22;45572;48.804;8.330;2023-02-26T13:41:19;4.30;71.40
3550;DHT22;45572;48.804;8.330;2023-02-26T13:44:00;4.20;70.80
3550;DHT22;45572;48.804;8.330;2023-02-26T13:46:38;4.10;71.40
3550;DHT22;45572;48.804;8.330;2023-02-26T13:49:14;4.20;70.30
3550;DHT22;45572;48.804;8.330;2023-02-26T13:51:45;4.30;70.90
3550;DHT22;45572;48.804;8.330;2023-02-26T13:54:32;4.60;70.40
3550;DHT22;45572;48.804;8.330;2023-02-26T13:57:18;4.80;69.60
3550;DHT22;45572;48.804;8.330;2023-02-26T13:59:53;4.90;66.90
3550;DHT22;45572;48.804;8.330;2023-02-26T14:02:43;5.00;65.80
3550;DHT22;45572;48.804;8.330;2023-02-26T14:05:28;4.90;66.20
3550;DHT22;45572;48.804;8.330;2023-02-26T14:08:16;4.70;65.50
3550;DHT22;45572;48.804;8.330;2023-02-26T14:10:54;4.60;68.10
3550;DHT22;45572;48.804;8.330;2023-02-26T14:13:23;4.50;67.30
3550;DHT22;45572;48.804;8.330;2023-02-26T14:15:59;4.40;68.40
3550;DHT22;45572;48.804;8.330;2023-02-26T14:18:35;4.30;70.00
3550;DHT22;45572;48.804;8.330;2023-02-26T14:24:01;4.10;69.80
3550;DHT22;45572;48.804;8.330;2023-02-26T14:26:34;4.10;70.40
3550;DHT22;45572;48.804;8.330;2023-02-26T14:29:15;4.10;68.80
3550;DHT22;45572;48.804;8.330;2023-02-26T14:32:00;4.10;68.50
3550;DHT22;45572;48.804;8.330;2023-02-26T14:34:34;4.10;67.60
3550;DHT22;45572;48.804;8.330;2023-02-26T14:37:05;4.00;68.30
3550;DHT22;45572;48.804;8.330;2023-02-26T14:39:38;4.00;68.60
3550;DHT22;45572;48.804;8.330;2023-02-26T14:42:11;4.10;68.10
3550;DHT22;45572;48.804;8.330;2023-02-26T14:44:42;4.10;67.60
3550;DHT22;45572;48.804;8.330;2023-02-26T14:47:11;4.20;68.50
3550;DHT22;45572;48.804;8.330;2023-02-26T14:49:41;4.30;66.80
3550;DHT22;45572;48.804;8.330;2023-02-26T14:52:35;4.30;68.10
3550;DHT22;45572;48.804;8.330;2023-02-26T14:55:21;4.20;68.50
3550;DHT22;45572;48.804;8.330;2023-02-26T14:58:04;4.10;69.90
3550;DHT22;45572;48.804;8.330;2023-02-26T15:00:41;4.00;68.60
3550;DHT22;45572;48.804;8.330;2023-02-26T15:03:34;4.00;69.40
3550;DHT22;45572;48.804;8.330;2023-02-26T15:06:20;3.90;70.20
3550;DHT22;45572;48.804;8.330;2023-02-26T15:09:00;3.90;69.70
3550;DHT22;45572;48.804;8.330;2023-02-26T15:11:44;3.90;69.70
3550;DHT22;45572;48.804;8.330;2023-02-26T15:14:31;3.90;66.50
3550;DHT22;45572;48.804;8.330;2023-02-26T15:17:10;4.00;67.20
3550;DHT22;45572;48.804;8.330;2023-02-26T15:19:57;4.00;66.40
3550;DHT22;45572;48.804;8.330;2023-02-26T15:22:52;4.00;65.70
3550;DHT22;45572;48.804;8.330;2023-02-26T15:25:27;4.00;66.60
3550;DHT22;45572;48.804;8.330;2023-02-26T15:27:56;4.10;65.80
3550;DHT22;45572;48.804;8.330;2023-02-26T15:30:26;4.10;66.60
3550;DHT22;45572;48.804;8.330;2023-02-26T15:32:56;4.10;67.00
3550;DHT22;45572;48.804;8.330;2023-02-26T15:35:26;4.00;66.90
3550;DHT22;45572;48.804;8.330;2023-02-26T15:37:56;4.00;68.40
3550;DHT22;45572;48.804;8.330;2023-02-26T15:40:27;3.90;68.60
3550;DHT22;45572;48.804;8.330;2023-02-26T15:42:56;3.90;66.80
3550;DHT22;45572;48.804;8.330;2023-02-26T15:45:31;3.80;67.60
3550;DHT22;45572;48.804;8.330;2023-02-26T15:48:04;3.80;66.90
3550;DHT22;45572;48.804;8.330;2023-02-26T15:50:38;3.90;68.10
3550;DHT22;45572;48.804;8.330;2023-02-26T15:53:11;3.90;67.90
3550;DHT22;45572;48.804;8.330;2023-02-26T15:55:45;3.90;67.40
3550;DHT22;45572;48.804;8.330;2023-02-26T15:58:19;3.90;67.20
3550;DHT22;45572;48.804;8.330;2023-02-26T16:00:59;3.90;67.60
3550;DHT22;45572;48.804;8.330;2023-02-26T16:03:30;4.00;67.20
3550;DHT22;45572;48.804;8.330;2023-02-26T16:05:59;3.90;67.60
3550;DHT22;45572;48.804;8.330;2023-02-26T16:08:27;3.90;66.30
3550;DHT22;45572;48.804;8.330;2023-02-26T16:10:56;3.90;67.40
3550;DHT22;45572;48.804;8.330;2023-02-26T16:13:28;3.80;67.00
3550;DHT22;45572;48.804;8.330;2023-02-26T16:16:00;3.80;66.90
3550;DHT22;45572;48.804;8.330;2023-02-26T16:18:31;3.70;67.10
3550;DHT22;45572;48.804;8.330;2023-02-26T16:21:02;3.70;68.40
3550;DHT22;45572;48.804;8.330;2023-02-26T16:23:39;3.80;67.80
3550;DHT22;45572;48.804;8.330;2023-02-26T16:26:15;3.80;67.40
3550;DHT22;45572;48.804;8.330;2023-02-26T16:28:45;3.70;68.10
3550;DHT22;45572;48.804;8.330;2023-02-26T16:31:18;3.70;69.10
3550;DHT22;45572;48.804;8.330;2023-02-26T16:33:52;3.60;69.20
3550;DHT22;45572;48.804;8.330;2023-02-26T16:36:23;3.60;68.50
3550;DHT22;45572;48.804;8.330;2023-02-26T16:38:59;3.60;68.70
3550;DHT22;45572;48.804;8.330;2023-02-26T16:41:30;3.60;68.60
3550;DHT22;45572;48.804;8.330;2023-02-26T16:44:03;3.40;66.10
3550;DHT22;45572;48.804;8.330;2023-02-26T16:46:38;3.30;67.10